Time;durP1;ratioP1;P1;durP2;ratioP2;P2;SDS_P1;SDS_P2;PMS_P1;PMS_P2;Temp;Humidity;BMP_temperature;BMP_pressure;BME280_temperature;BME280_humidity;BME280_pressure;Samples;Min_cycle;Max_cycle;Signal;HPM_P1;HPM_P2
2022/07/06 00:01:29;;;;;;;5.78;3.60;;;;;;;25.42;43.97;99538.97;5091172;28;20027;-37
2022/07/06 00:03:54;;;;;;;7.10;3.58;;;;;;;25.51;44.29;99542.59;5090923;28;20028;-37
2022/07/06 00:06:20;;;;;;;5.45;3.40;;;;;;;25.65;44.10;99546.06;5091211;28;20016;-37
2022/07/06 00:08:45;;;;;;;4.65;3.47;;;;;;;26.08;42.27;99551.06;5090623;28;20442;-37
2022/07/06 00:11:11;;;;;;;6.80;3.95;;;;;;;25.73;43.46;99545.31;5091202;28;20034;-36
2022/07/06 00:13:38;;;;;;;8.60;4.00;;;;;;;25.78;43.89;99540.88;5090841;28;20020;-37
2022/07/06 00:16:03;;;;;;;7.10;4.93;;;;;;;25.85;44.18;99531.13;5090866;28;20042;-37
2022/07/06 00:18:29;;;;;;;6.85;4.63;;;;;;;25.79;44.28;99515.25;5090678;28;20023;-37
2022/07/06 00:20:54;;;;;;;9.65;4.80;;;;;;;26.18;43.72;99530.09;5089587;28;20561;-37
2022/07/06 00:23:20;;;;;;;9.60;4.97;;;;;;;25.99;44.71;99531.13;5090784;28;20461;-37
2022/07/06 00:25:45;;;;;;;9.82;5.30;;;;;;;25.62;46.01;99527.59;5090316;28;20436;-37
2022/07/06 00:28:11;;;;;;;7.88;5.30;;;;;;;25.69;46.19;99524.47;5089156;28;20059;-37
2022/07/06 00:30:36;;;;;;;8.15;5.32;;;;;;;25.72;46.26;99527.38;5090696;28;20062;-38
2022/07/06 00:33:02;;;;;;;9.85;5.35;;;;;;;25.90;45.85;99520.13;5089219;28;20107;-36
2022/07/06 00:35:27;;;;;;;7.10;4.82;;;;;;;25.02;47.89;99514.22;5090378;28;20039;-37
2022/07/06 00:37:53;;;;;;;6.82;5.00;;;;;;;25.01;47.83;99510.72;5090396;28;20077;-37
2022/07/06 00:40:18;;;;;;;6.28;4.78;;;;;;;25.23;47.48;99501.84;5090054;28;20077;-37
2022/07/06 00:42:46;;;;;;;6.93;5.15;;;;;;;25.27;47.12;99502.81;5090625;28;20074;-37
2022/07/06 00:45:12;;;;;;;9.10;4.65;;;;;;;25.36;47.15;99492.03;5090422;28;20024;-37
2022/07/06 00:47:39;;;;;;;8.13;4.72;;;;;;;25.39;47.08;99498.75;5090247;28;20057;-37
2022/07/06 00:50:15;;;;;;;9.90;4.82;;;;;;;25.27;47.50;99497.38;5089948;28;20281;-38
2022/07/06 00:52:46;;;;;;;9.98;5.03;;;;;;;25.17;47.88;99501.09;5090212;28;20027;-38
2022/07/06 00:55:12;;;;;;;7.90;4.93;;;;;;;25.61;46.71;99490.59;5090118;28;20028;-38
2022/07/06 00:57:39;;;;;;;6.43;4.90;;;;;;;25.70;46.38;99488.75;5089125;28;20184;-38
2022/07/06 01:00:08;;;;;;;11.02;4.88;;;;;;;25.68;46.39;99484.69;5089542;28;20542;-38
2022/07/06 01:02:35;;;;;;;8.00;4.57;;;;;;;25.12;47.79;99478.63;5090114;28;20031;-38
2022/07/06 01:05:03;;;;;;;9.02;4.85;;;;;;;25.20;47.58;99472.47;5089954;28;20026;-38
2022/07/06 01:07:29;;;;;;;7.97;5.05;;;;;;;25.49;46.90;99465.81;5091165;28;20020;-38
2022/07/06 01:09:55;;;;;;;8.18;4.85;;;;;;;25.75;46.46;99455.09;5094653;28;20020;-38
2022/07/06 01:12:21;;;;;;;8.45;4.40;;;;;;;26.05;45.59;99455.47;5094003;28;20032;-38
2022/07/06 01:14:48;;;;;;;6.18;4.72;;;;;;;25.83;45.76;99446.16;5094122;28;20027;-38
2022/07/06 01:17:15;;;;;;;6.78;4.45;;;;;;;25.52;46.50;99444.22;5094387;28;20030;-38
2022/07/06 01:19:40;;;;;;;6.60;4.80;;;;;;;25.49;46.84;99438.59;5094203;28;20028;-38
2022/07/06 01:22:05;;;;;;;5.43;4.53;;;;;;;25.59;46.51;99432.91;5093937;28;20090;-38
2022/07/06 01:24:31;;;;;;;8.52;4.80;;;;;;;26.03;45.25;99431.22;5094281;28;20024;-38
2022/07/06 01:26:57;;;;;;;9.70;4.70;;;;;;;25.78;46.07;99420.97;5094115;28;20055;-38
2022/07/06 01:29:22;;;;;;;6.90;4.50;;;;;;;25.55;46.35;99421.81;5093987;28;20024;-38
2022/07/06 01:31:49;;;;;;;7.80;4.55;;;;;;;25.55;46.42;99418.25;5094097;28;20022;-37
2022/07/06 01:34:17;;;;;;;15.73;4.88;;;;;;;25.59;46.13;99413.00;5093618;28;20488;-37
2022/07/06 01:36:42;;;;;;;12.63;5.00;;;;;;;26.16;44.80;99401.44;5093922;28;20829;-38
2022/07/06 01:39:09;;;;;;;12.63;4.53;;;;;;;25.74;45.64;99407.97;5093880;28;20376;-37
2022/07/06 01:41:34;;;;;;;14.45;4.78;;;;;;;25.45;46.48;99403.00;5093726;28;20027;-36
2022/07/06 01:44:00;;;;;;;7.90;4.93;;;;;;;25.51;45.92;99398.22;5093544;28;20224;-37
2022/07/06 01:46:26;;;;;;;9.15;4.45;;;;;;;25.59;46.14;99397.50;5094069;28;20063;-37
2022/07/06 01:48:51;;;;;;;8.25;4.13;;;;;;;26.06;44.55;99392.41;5093560;28;20499;-37
2022/07/06 01:51:17;;;;;;;8.43;4.22;;;;;;;25.93;44.99;99391.44;5093534;28;20020;-37
2022/07/06 01:53:43;;;;;;;9.45;4.38;;;;;;;25.34;46.41;99388.84;5093076;28;20478;-37
2022/07/06 01:56:09;;;;;;;7.65;4.10;;;;;;;25.15;47.60;99383.56;5093400;28;20032;-37
2022/07/06 01:58:34;;;;;;;5.45;4.53;;;;;;;25.22;47.31;99390.47;5093556;28;20099;-36
2022/07/06 02:01:06;;;;;;;8.43;4.70;;;;;;;25.78;45.70;99383.63;5073195;28;20098;-37
2022/07/06 02:03:31;;;;;;;6.38;4.22;;;;;;;25.41;47.01;99377.50;5072945;28;20032;-37
2022/07/06 02:05:57;;;;;;;5.85;4.40;;;;;;;25.31;46.96;99375.84;5071560;28;20081;-38
2022/07/06 02:08:22;;;;;;;10.50;4.28;;;;;;;25.18;47.41;99373.94;5073083;28;20499;-37
2022/07/06 02:10:48;;;;;;;9.38;4.63;;;;;;;25.17;47.44;99375.88;5073268;28;20100;-38
2022/07/06 02:13:13;;;;;;;5.93;4.47;;;;;;;25.16;48.06;99376.19;5073333;28;20102;-37
2022/07/06 02:15:39;;;;;;;8.82;4.72;;;;;;;25.70;46.55;99370.75;5072715;28;20028;-38
2022/07/06 02:18:04;;;;;;;9.25;4.97;;;;;;;24.98;48.12;99359.72;5072741;28;20028;-37
2022/07/06 02:20:30;;;;;;;7.30;4.82;;;;;;;24.69;49.12;99368.28;5071761;28;20025;-38
2022/07/06 02:22:55;;;;;;;6.22;4.57;;;;;;;24.76;49.04;99367.88;5072731;28;20025;-38
2022/07/06 02:25:21;;;;;;;11.25;5.15;;;;;;;24.74;49.30;99372.81;5072288;28;20028;-38
2022/07/06 02:27:47;;;;;;;9.35;4.88;;;;;;;25.45;47.33;99367.59;5072963;28;20104;-38
2022/07/06 02:30:12;;;;;;;11.02;5.15;;;;;;;24.85;49.07;99373.41;5072531;28;20067;-38
2022/07/06 02:32:38;;;;;;;9.52;4.78;;;;;;;24.82;49.40;99369.34;5072701;28;20195;-38
2022/07/06 02:35:03;;;;;;;9.52;5.30;;;;;;;24.79;48.89;99361.81;5072472;28;20024;-38
2022/07/06 02:37:29;;;;;;;12.48;5.45;;;;;;;24.89;48.85;99377.91;5072430;28;20492;-37
2022/07/06 02:39:54;;;;;;;14.10;5.35;;;;;;;25.53;47.50;99376.91;5072355;28;20363;-37
2022/07/06 02:42:19;;;;;;;15.05;5.82;;;;;;;24.79;49.57;99375.44;5072362;28;20065;-36
2022/07/06 02:44:45;;;;;;;16.73;5.68;;;;;;;24.66;49.90;99370.81;5072366;28;20031;-36
2022/07/06 02:47:10;;;;;;;16.85;5.57;;;;;;;24.29;50.96;99381.59;5072080;28;20082;-37
2022/07/06 02:49:36;;;;;;;12.63;5.13;;;;;;;24.30;50.64;99387.88;5072364;28;20048;-37
2022/07/06 02:52:01;;;;;;;7.35;5.20;;;;;;;24.68;49.74;99388.44;5072349;28;20472;-37
2022/07/06 02:54:27;;;;;;;11.63;5.40;;;;;;;24.51;49.95;99391.78;5071779;28;20036;-37
2022/07/06 02:56:53;;;;;;;9.40;5.10;;;;;;;23.79;52.01;99392.38;5071875;28;20035;-37
2022/07/06 02:59:19;;;;;;;9.90;5.35;;;;;;;23.74;52.35;99392.41;5090117;28;20035;-37
2022/07/06 03:01:45;;;;;;;8.55;5.28;;;;;;;23.87;51.93;99399.03;5092380;28;20066;-37
2022/07/06 03:04:10;;;;;;;6.68;5.40;;;;;;;24.40;50.22;99403.97;5092167;28;20491;-37
2022/07/06 03:06:36;;;;;;;7.43;5.30;;;;;;;24.53;49.70;99403.16;5091970;28;20067;-37
2022/07/06 03:09:02;;;;;;;10.07;5.60;;;;;;;23.92;51.50;99394.28;5091816;28;20399;-37
2022/07/06 03:11:27;;;;;;;8.75;5.20;;;;;;;24.01;51.30;99399.84;5092120;28;20059;-36
2022/07/06 03:13:53;;;;;;;9.60;5.80;;;;;;;23.84;51.78;99402.31;5092160;28;20055;-37
2022/07/06 03:16:18;;;;;;;12.27;6.18;;;;;;;23.99;51.75;99410.22;5092328;28;20027;-37
2022/07/06 03:18:43;;;;;;;11.30;5.57;;;;;;;24.67;50.37;99411.28;5091667;28;20034;-37
2022/07/06 03:21:09;;;;;;;6.47;5.20;;;;;;;23.97;52.37;99407.78;5091759;28;20031;-38
2022/07/06 03:23:34;;;;;;;9.73;5.45;;;;;;;23.81;52.45;99415.41;5091579;28;20016;-37
2022/07/06 03:26:00;;;;;;;8.95;5.30;;;;;;;23.97;51.70;99415.94;5091992;28;20031;-36
2022/07/06 03:28:25;;;;;;;10.15;5.55;;;;;;;24.02;51.38;99419.66;5091872;28;20042;-37
2022/07/06 03:30:51;;;;;;;12.25;5.22;;;;;;;24.59;49.57;99412.81;5091111;28;20024;-37
2022/07/06 03:33:16;;;;;;;8.15;5.15;;;;;;;24.54;49.76;99414.84;5092294;28;20028;-38
2022/07/06 03:35:42;;;;;;;8.95;5.40;;;;;;;24.30;52.06;99420.50;5091472;28;20159;-36
2022/07/06 03:38:08;;;;;;;7.57;5.80;;;;;;;24.28;52.12;99426.22;5091495;28;20031;-36
2022/07/06 03:40:33;;;;;;;10.48;5.65;;;;;;;24.33;52.04;99431.56;5091209;28;20024;-37
2022/07/06 03:42:59;;;;;;;16.42;5.90;;;;;;;24.52;51.64;99417.91;5091378;28;20502;-37
2022/07/06 03:45:25;;;;;;;18.00;5.38;;;;;;;25.43;48.70;99420.75;5091109;28;20020;-36
2022/07/06 03:47:50;;;;;;;15.02;6.00;;;;;;;24.97;50.12;99426.16;5091380;28;20028;-37
2022/07/06 03:50:15;;;;;;;11.65;6.10;;;;;;;24.95;49.99;99431.09;5076851;28;20050;-36
2022/07/06 03:52:41;;;;;;;13.57;6.75;;;;;;;25.09;50.20;99424.81;5071025;28;20446;-36
2022/07/06 03:55:11;;;;;;;16.65;6.60;;;;;;;25.39;50.12;99433.41;5070729;28;20024;-36
2022/07/06 03:57:38;;;;;;;16.25;6.05;;;;;;;26.14;48.17;99431.75;5072498;28;20024;-37
2022/07/06 04:00:05;;;;;;;13.23;5.75;;;;;;;26.43;47.32;99439.41;5072419;28;20028;-37
2022/07/06 04:02:31;;;;;;;10.48;5.43;;;;;;;26.31;47.22;99434.56;5070948;28;20030;-42
2022/07/06 04:04:57;;;;;;;13.80;5.40;;;;;;;26.35;46.63;99429.28;5072444;28;20055;-43
2022/07/06 04:07:22;;;;;;;15.85;5.50;;;;;;;26.66;45.49;99433.88;5071067;28;20048;-44
2022/07/06 04:09:48;;;;;;;10.98;5.57;;;;;;;26.39;46.57;99430.25;5072348;28;20035;-43
2022/07/06 04:12:14;;;;;;;8.70;5.75;;;;;;;26.78;46.28;99430.50;5071825;28;20029;-41
2022/07/06 04:14:39;;;;;;;6.55;5.57;;;;;;;26.64;47.43;99433.38;5069623;28;20032;-37
2022/07/06 04:17:51;;;;;;;12.82;6.00;;;;;;;26.53;48.06;99433.63;5070575;28;20033;-37
2022/07/06 04:19:50;;;;;;;11.80;6.93;;;;;;;26.72;48.33;99440.78;5083357;28;20028;-36
2022/07/06 04:22:16;;;;;;;13.18;6.78;;;;;;;27.03;48.34;99439.84;5090509;28;20051;-36
2022/07/06 04:24:42;;;;;;;9.95;6.80;;;;;;;26.87;48.44;99443.03;5090610;28;20489;-37
2022/07/06 04:27:07;;;;;;;9.90;6.55;;;;;;;26.78;49.05;99444.16;5090630;28;20103;-36
2022/07/06 04:29:33;;;;;;;10.00;7.18;;;;;;;26.71;49.67;99439.97;5090625;28;20371;-37
2022/07/06 04:31:58;;;;;;;12.80;7.95;;;;;;;26.98;49.31;99443.53;5089670;28;20028;-37
2022/07/06 04:34:23;;;;;;;13.88;8.50;;;;;;;27.62;48.17;99440.13;5088921;28;20016;-37
2022/07/06 04:36:49;;;;;;;11.43;7.20;;;;;;;28.11;46.76;99434.41;5090037;28;20506;-37
2022/07/06 04:39:14;;;;;;;14.65;6.88;;;;;;;27.68;47.72;99438.88;5089438;28;20475;-37
2022/07/06 04:41:40;;;;;;;7.63;6.18;;;;;;;27.73;47.62;99440.59;5088356;28;20395;-36
2022/07/06 04:44:05;;;;;;;11.55;6.20;;;;;;;27.94;47.63;99445.41;5087742;28;20479;-36
2022/07/06 04:46:30;;;;;;;8.10;6.38;;;;;;;28.01;46.86;99441.03;5087062;28;20031;-36
2022/07/06 04:48:56;;;;;;;8.00;6.07;;;;;;;28.63;45.78;99442.34;5088031;28;20127;-38
2022/07/06 04:51:21;;;;;;;10.48;6.45;;;;;;;28.45;46.20;99432.63;5087936;28;20497;-37
2022/07/06 04:53:46;;;;;;;9.45;6.13;;;;;;;28.63;45.45;99438.81;5088674;28;20024;-37
2022/07/06 04:56:12;;;;;;;10.35;6.30;;;;;;;28.85;45.45;99438.50;5088839;28;20039;-37
2022/07/06 04:58:38;;;;;;;9.77;6.38;;;;;;;28.21;46.48;99433.22;5089056;28;20028;-38
2022/07/06 05:01:03;;;;;;;9.35;6.30;;;;;;;28.74;45.36;99439.25;5069495;28;20028;-36
2022/07/06 05:03:29;;;;;;;8.18;6.07;;;;;;;27.99;47.34;99435.09;5070262;28;20024;-43
2022/07/06 05:05:54;;;;;;;8.95;6.30;;;;;;;27.97;47.51;99448.28;5069645;28;20038;-43
2022/07/06 05:08:19;;;;;;;10.20;6.45;;;;;;;28.14;47.26;99443.88;5069878;28;20373;-43
2022/07/06 05:10:45;;;;;;;11.18;6.50;;;;;;;28.26;46.68;99446.72;5069744;28;20396;-43
2022/07/06 05:13:10;;;;;;;9.13;6.35;;;;;;;28.89;45.52;99440.59;5069907;28;20029;-43
2022/07/06 05:15:36;;;;;;;8.55;5.80;;;;;;;28.22;46.87;99449.31;5069158;28;20098;-46
2022/07/06 05:18:01;;;;;;;6.90;5.90;;;;;;;28.16;47.10;99447.06;5069263;28;20016;-42
2022/07/06 05:20:27;;;;;;;10.35;5.72;;;;;;;28.22;46.84;99456.72;5069418;28;20027;-42
2022/07/06 05:22:52;;;;;;;9.82;5.55;;;;;;;28.15;46.80;99450.97;5069805;28;20036;-42
2022/07/06 05:25:18;;;;;;;6.95;5.93;;;;;;;28.76;45.76;99461.63;5069431;28;20024;-43
2022/07/06 05:27:43;;;;;;;13.32;6.65;;;;;;;27.92;47.54;99464.06;5069304;28;20025;-44
2022/07/06 05:30:09;;;;;;;15.27;7.05;;;;;;;27.01;49.29;99467.47;5069561;28;20111;-44
2022/07/06 05:32:35;;;;;;;14.48;6.65;;;;;;;27.47;48.84;99473.44;5069491;28;20480;-44
2022/07/06 05:35:00;;;;;;;9.52;6.72;;;;;;;27.84;47.85;99474.66;5069570;28;20032;-42
2022/07/06 05:37:26;;;;;;;8.68;6.45;;;;;;;28.57;46.37;99473.00;5069157;28;20024;-44
2022/07/06 05:39:51;;;;;;;11.32;6.22;;;;;;;27.81;48.24;99472.56;5069536;28;20400;-46
2022/07/06 05:42:17;;;;;;;11.00;6.40;;;;;;;27.76;48.54;99480.13;5070186;28;20017;-42
2022/07/06 05:44:43;;;;;;;11.63;6.32;;;;;;;27.77;48.54;99484.50;5069103;28;20071;-43
2022/07/06 05:52:36;;;;;;;12.95;6.60;;;;;;;27.83;48.67;99489.44;5070132;28;20068;-42
2022/07/06 05:55:02;;;;;;;8.82;6.65;;;;;;;27.90;48.56;99489.00;5072571;28;20447;-44
2022/07/06 05:57:27;;;;;;;12.15;6.80;;;;;;;28.17;47.65;99481.53;5073037;28;20038;-43
2022/07/06 05:59:53;;;;;;;7.82;6.05;;;;;;;28.52;46.84;99486.88;5072535;28;20024;-43
2022/07/06 06:02:18;;;;;;;8.90;6.30;;;;;;;28.66;46.78;99492.91;5072578;28;20020;-43
2022/07/06 06:04:43;;;;;;;13.45;6.40;;;;;;;28.38;47.16;99501.53;5072428;28;20487;-43
2022/07/06 06:07:09;;;;;;;15.02;6.57;;;;;;;28.81;46.05;99494.28;5072691;28;20108;-43
2022/07/06 06:09:34;;;;;;;13.32;6.50;;;;;;;29.91;43.96;99498.72;5072206;28;20027;-44
2022/07/06 06:12:00;;;;;;;10.75;6.20;;;;;;;30.43;43.00;99494.63;5072598;28;20107;-43
2022/07/06 06:14:25;;;;;;;10.30;6.40;;;;;;;30.88;41.74;99497.22;5072513;28;20123;-44
2022/07/06 06:16:50;;;;;;;10.40;6.13;;;;;;;30.70;42.39;99499.41;5072665;28;20414;-45
2022/07/06 06:19:16;;;;;;;12.60;5.70;;;;;;;30.67;42.39;99505.56;5072477;28;20403;-45
2022/07/06 06:21:41;;;;;;;8.23;5.90;;;;;;;31.16;41.58;99510.25;5072232;28;20472;-43
2022/07/06 06:24:07;;;;;;;9.57;6.05;;;;;;;30.97;42.37;99497.91;5072187;28;20025;-43
2022/07/06 06:26:32;;;;;;;10.07;6.30;;;;;;;31.15;41.83;99497.66;5072304;28;20027;-43
2022/07/06 06:28:58;;;;;;;12.60;6.10;;;;;;;31.44;40.90;99503.97;5072539;28;20027;-43
2022/07/06 06:31:23;;;;;;;9.50;6.20;;;;;;;32.01;39.60;99510.25;5088855;28;20384;-44
2022/07/06 06:33:49;;;;;;;11.75;6.60;;;;;;;31.45;40.30;99497.31;5090492;28;20023;-44
2022/07/06 06:36:14;;;;;;;8.98;6.20;;;;;;;31.08;41.15;99497.44;5091479;28;20049;-46
2022/07/06 06:38:40;;;;;;;8.85;6.35;;;;;;;31.54;40.50;99504.28;5092108;28;20024;-42
2022/07/06 06:41:05;;;;;;;10.13;6.10;;;;;;;32.30;39.04;99506.31;5091187;28;20024;-43
2022/07/06 06:43:31;;;;;;;8.52;6.30;;;;;;;32.57;38.07;99510.13;5091582;28;20507;-42
2022/07/06 06:45:56;;;;;;;13.18;6.32;;;;;;;32.09;38.59;99507.34;5092435;28;20020;-42
2022/07/06 06:48:22;;;;;;;17.55;6.40;;;;;;;31.88;38.51;99502.06;5092176;28;20109;-43
2022/07/06 06:50:47;;;;;;;8.00;5.95;;;;;;;31.77;38.68;99501.78;5091958;28;20473;-42
2022/07/06 06:53:13;;;;;;;12.80;6.80;;;;;;;31.49;39.38;99509.25;5090296;28;20035;-43
2022/07/06 06:55:39;;;;;;;10.98;6.70;;;;;;;31.64;38.97;99505.72;5090394;28;20049;-42
2022/07/06 06:58:04;;;;;;;11.85;6.68;;;;;;;31.77;39.05;99506.47;5089954;28;20027;-42
2022/07/06 07:00:30;;;;;;;15.23;6.30;;;;;;;31.55;39.33;99494.91;5073798;28;20133;-42
2022/07/06 07:02:55;;;;;;;7.78;6.57;;;;;;;31.88;38.49;99504.03;5069721;28;20479;-42
2022/07/06 07:05:20;;;;;;;11.55;6.88;;;;;;;31.98;38.44;99500.75;5068828;28;20429;-43
2022/07/06 07:07:46;;;;;;;8.00;6.30;;;;;;;31.84;38.48;99500.38;5069570;28;20024;-41
2022/07/06 07:10:11;;;;;;;11.07;7.72;;;;;;;32.54;37.81;99499.81;5070037;28;20404;-43
2022/07/06 07:12:47;;;;;;;9.93;6.63;;;;;;;31.97;38.09;99493.66;5070925;28;20043;-43
2022/07/06 07:15:13;;;;;;;11.80;8.27;;;;;;;32.26;38.09;99489.69;5071171;28;20421;-42
2022/07/06 07:17:40;;;;;;;9.80;7.65;;;;;;;32.42;38.08;99494.41;5071386;28;20051;-42
2022/07/06 07:20:06;;;;;;;11.73;6.63;;;;;;;33.14;36.84;99490.56;5071248;28;20106;-42
2022/07/06 07:22:32;;;;;;;9.63;6.82;;;;;;;32.66;37.22;99485.16;5071130;28;20484;-42
2022/07/06 07:24:58;;;;;;;12.40;6.97;;;;;;;33.32;36.47;99486.22;5070830;28;20028;-44
2022/07/06 07:27:25;;;;;;;13.65;7.22;;;;;;;32.42;37.23;99486.13;5071358;28;20029;-45
2022/07/06 07:29:50;;;;;;;9.00;6.68;;;;;;;32.30;37.37;99492.53;5071060;28;20027;-42
2022/07/06 07:32:15;;;;;;;10.30;8.27;;;;;;;32.74;36.46;99492.41;5071198;28;20478;-42
2022/07/06 07:34:41;;;;;;;22.20;13.70;;;;;;;32.98;36.26;99483.13;5070518;28;20028;-43
2022/07/06 07:37:06;;;;;;;10.82;6.78;;;;;;;32.67;36.34;99479.31;5071093;28;20490;-43
2022/07/06 07:39:32;;;;;;;10.35;6.30;;;;;;;32.33;37.17;99487.13;5070614;28;20147;-41
2022/07/06 07:41:57;;;;;;;9.32;7.13;;;;;;;32.76;36.58;99483.81;5070796;28;20699;-42
2022/07/06 07:44:24;;;;;;;7.38;6.65;;;;;;;33.49;35.65;99474.75;5070319;28;20036;-42
2022/07/06 07:46:52;;;;;;;9.02;6.50;;;;;;;33.08;35.68;99492.78;5070309;28;20055;-42
2022/07/06 07:49:17;;;;;;;9.85;7.10;;;;;;;32.72;36.26;99484.50;5070769;28;20051;-43
2022/07/06 07:51:43;;;;;;;8.80;6.85;;;;;;;32.76;36.52;99492.06;5070897;28;20032;-42
2022/07/06 07:54:08;;;;;;;10.20;7.07;;;;;;;31.90;37.52;99499.75;5070688;28;20590;-43
2022/07/06 07:56:33;;;;;;;13.23;7.43;;;;;;;32.40;37.00;99488.44;5069931;28;20044;-42
2022/07/06 07:58:59;;;;;;;13.00;7.32;;;;;;;32.30;37.50;99485.06;5070996;28;20016;-42
2022/07/06 08:01:24;;;;;;;10.90;7.30;;;;;;;32.05;37.92;99489.16;5070621;28;20029;-43
2022/07/06 08:03:50;;;;;;;8.50;7.60;;;;;;;32.19;37.79;99495.03;5070440;28;20039;-42
2022/07/06 08:06:15;;;;;;;11.65;6.90;;;;;;;31.75;38.38;99489.53;5070386;28;20032;-42
2022/07/06 08:08:41;;;;;;;7.95;7.13;;;;;;;31.95;38.45;99483.00;5070585;28;20029;-45
2022/07/06 08:11:07;;;;;;;9.77;7.10;;;;;;;32.22;37.56;99479.75;5070304;28;20051;-42
2022/07/06 08:13:33;;;;;;;9.43;7.38;;;;;;;32.28;37.58;99486.59;5070320;28;20017;-44
2022/07/06 08:16:00;;;;;;;7.82;7.03;;;;;;;32.65;36.95;99470.59;5070398;28;20404;-37
2022/07/06 08:18:25;;;;;;;10.95;7.38;;;;;;;32.17;37.90;99477.28;5069321;28;20039;-38
2022/07/06 08:20:50;;;;;;;9.43;7.13;;;;;;;32.24;37.96;99485.72;5070032;28;20134;-36
2022/07/06 08:23:16;;;;;;;8.90;7.38;;;;;;;32.74;37.55;99484.16;5070411;28;20016;-36
2022/07/06 08:25:41;;;;;;;10.23;7.43;;;;;;;32.73;37.03;99477.84;5069939;28;20020;-36
2022/07/06 08:28:07;;;;;;;12.43;7.32;;;;;;;32.54;37.25;99477.78;5069750;28;20024;-37
2022/07/06 08:30:34;;;;;;;13.30;7.55;;;;;;;32.72;37.51;99470.75;5069808;28;20166;-37
2022/07/06 08:33:00;;;;;;;9.27;7.47;;;;;;;33.11;36.27;99472.81;5070264;28;20020;-37
2022/07/06 08:35:26;;;;;;;11.77;7.30;;;;;;;33.20;36.18;99473.34;5069605;28;20028;-37
2022/07/06 08:37:51;;;;;;;11.20;7.10;;;;;;;34.03;35.10;99467.47;5070057;28;20434;-36
2022/07/06 08:40:16;;;;;;;11.25;7.15;;;;;;;33.91;35.25;99475.13;5070149;28;20020;-37
2022/07/06 08:42:43;;;;;;;10.98;7.22;;;;;;;33.91;35.83;99469.59;5070243;28;20107;-37
2022/07/06 08:45:09;;;;;;;12.88;6.97;;;;;;;34.39;34.89;99470.84;5070412;28;20103;-37
2022/07/06 08:47:37;;;;;;;12.77;7.30;;;;;;;34.18;34.99;99467.75;5070407;28;20104;-36
2022/07/06 08:50:04;;;;;;;9.55;6.43;;;;;;;34.44;34.40;99470.53;5069914;28;20045;-37
2022/07/06 08:52:30;;;;;;;11.43;7.10;;;;;;;34.71;33.81;99456.75;5070149;28;20047;-37
2022/07/06 08:54:55;;;;;;;11.00;6.72;;;;;;;34.79;33.59;99468.69;5069544;28;20488;-37
2022/07/06 08:57:21;;;;;;;8.80;7.18;;;;;;;34.76;33.49;99463.91;5070132;28;20105;-37
2022/07/06 08:59:46;;;;;;;11.52;6.80;;;;;;;34.24;34.33;99463.50;5069542;28;20668;-38
2022/07/06 09:02:13;;;;;;;12.90;7.00;;;;;;;33.22;35.50;99460.00;5069787;28;20021;-38
2022/07/06 09:04:42;;;;;;;13.82;7.18;;;;;;;33.25;35.41;99467.56;5069741;28;20035;-38
2022/07/06 09:07:07;;;;;;;15.55;10.65;;;;;;;33.98;34.50;99462.25;5069891;28;20458;-36
2022/07/06 09:09:35;;;;;;;13.95;8.05;;;;;;;33.72;35.43;99470.44;5069513;28;20028;-38
2022/07/06 09:12:00;;;;;;;10.25;8.10;;;;;;;33.44;35.86;99458.50;5069295;28;20028;-37
2022/07/06 09:14:27;;;;;;;11.20;7.78;;;;;;;33.49;35.90;99476.69;5069528;28;20503;-37
2022/07/06 09:17:03;;;;;;;10.50;7.53;;;;;;;33.64;36.06;99478.59;5069961;28;20434;-37
2022/07/06 09:19:30;;;;;;;12.43;8.18;;;;;;;34.09;35.38;99468.75;5069492;28;20017;-36
2022/07/06 09:21:56;;;;;;;9.02;7.85;;;;;;;33.78;36.03;99472.56;5069329;28;20513;-37
2022/07/06 09:24:22;;;;;;;11.73;7.63;;;;;;;33.83;35.86;99475.00;5069451;28;20057;-37
2022/07/06 09:26:47;;;;;;;11.55;8.40;;;;;;;33.42;36.48;99471.06;5069681;28;20025;-38
2022/07/06 09:29:13;;;;;;;13.23;8.27;;;;;;;33.38;36.88;99476.50;5072052;28;20661;-37
2022/07/06 09:31:39;;;;;;;10.13;8.48;;;;;;;32.62;37.98;99484.28;5073311;28;20049;-37
2022/07/06 09:34:07;;;;;;;11.63;7.90;;;;;;;32.38;38.59;99483.28;5073305;28;20130;-37
2022/07/06 09:36:46;;;;;;;9.18;8.27;;;;;;;32.85;38.06;99481.66;5073203;28;20496;-37
2022/07/06 09:39:28;;;;;;;10.10;8.32;;;;;;;32.48;38.10;99482.75;5073568;28;20433;-36
2022/07/06 09:41:56;;;;;;;12.30;9.10;;;;;;;32.47;38.55;99478.41;5073338;28;20461;-37
2022/07/06 09:44:23;;;;;;;12.13;8.68;;;;;;;31.88;39.38;99471.00;5073119;28;20031;-37
2022/07/06 09:46:49;;;;;;;17.07;9.60;;;;;;;32.39;38.67;99470.34;5073204;28;20031;-37
2022/07/06 09:49:20;;;;;;;12.77;8.55;;;;;;;32.46;38.38;99456.72;5073168;28;20290;-37
2022/07/06 09:51:51;;;;;;;13.57;8.80;;;;;;;31.87;39.57;99459.22;5073325;28;20031;-37
2022/07/06 09:54:17;;;;;;;9.32;8.32;;;;;;;31.92;39.52;99458.16;5073072;28;20017;-36
2022/07/06 09:56:47;;;;;;;12.35;8.80;;;;;;;32.40;38.65;99458.94;5073017;28;20036;-37
2022/07/06 09:59:14;;;;;;;15.77;8.57;;;;;;;32.80;37.56;99452.41;5078360;28;20020;-36
2022/07/06 10:01:40;;;;;;;11.18;8.60;;;;;;;32.63;38.36;99453.59;5093224;28;20058;-37
2022/07/06 10:04:07;;;;;;;12.13;7.88;;;;;;;32.81;37.72;99456.78;5092632;28;20105;-36
2022/07/06 10:06:33;;;;;;;12.73;8.07;;;;;;;32.77;37.55;99458.66;5092766;28;20032;-37
2022/07/06 10:08:59;;;;;;;11.20;7.85;;;;;;;32.93;36.95;99451.13;5092592;28;20030;-37
2022/07/06 10:11:27;;;;;;;10.27;7.60;;;;;;;32.52;37.54;99444.31;5092435;28;20089;-38
2022/07/06 10:13:55;;;;;;;10.63;8.30;;;;;;;32.61;37.32;99444.91;5092522;28;20028;-38
2022/07/06 10:16:25;;;;;;;12.35;7.88;;;;;;;32.43;36.91;99438.19;5092466;28;20097;-37
2022/07/06 10:18:54;;;;;;;9.88;8.02;;;;;;;31.75;37.89;99449.06;5092904;28;20128;-37
2022/07/06 10:21:22;;;;;;;10.48;7.97;;;;;;;31.63;38.46;99451.13;5093086;28;20062;-38
2022/07/06 10:23:49;;;;;;;8.82;7.45;;;;;;;32.14;38.06;99443.00;5092843;28;20469;-38
2022/07/06 10:26:18;;;;;;;8.60;7.70;;;;;;;32.63;37.13;99434.34;5092922;28;20028;-37
2022/07/06 10:28:44;;;;;;;10.52;8.00;;;;;;;33.10;35.65;99429.81;5093070;28;20055;-37
2022/07/06 10:31:10;;;;;;;10.82;7.80;;;;;;;33.36;35.21;99429.19;5093253;28;20046;-37
2022/07/06 10:33:38;;;;;;;8.30;7.43;;;;;;;33.34;35.53;99431.50;5092536;28;20031;-38
2022/07/06 10:36:05;;;;;;;10.20;7.00;;;;;;;33.52;34.56;99420.03;5092691;28;20036;-37
2022/07/06 10:38:35;;;;;;;10.60;6.93;;;;;;;33.55;34.38;99419.28;5092887;28;20070;-37
2022/07/06 10:41:06;;;;;;;8.73;6.38;;;;;;;33.96;34.47;99412.13;5091671;28;20048;-37
2022/07/06 10:43:52;;;;;;;9.45;6.60;;;;;;;33.61;34.38;99409.56;5092726;28;20035;-37
2022/07/06 10:46:19;;;;;;;11.52;7.10;;;;;;;34.21;33.48;99420.06;5092115;28;20039;-37
2022/07/06 10:48:46;;;;;;;9.82;6.95;;;;;;;34.62;33.24;99410.00;5092238;28;20060;-37
2022/07/06 10:51:22;;;;;;;9.32;6.85;;;;;;;34.94;32.34;99409.66;5092526;28;20044;-37
2022/07/06 10:53:56;;;;;;;10.95;6.80;;;;;;;34.76;32.61;99412.19;5092552;28;20064;-37
2022/07/06 10:56:38;;;;;;;9.75;6.38;;;;;;;34.66;32.74;99412.81;5092511;28;20060;-37
2022/07/06 10:59:29;;;;;;;12.43;6.72;;;;;;;34.67;33.09;99408.91;5091935;28;20480;-37
2022/07/06 11:02:14;;;;;;;10.45;6.93;;;;;;;34.75;32.64;99412.56;5088592;28;20066;-37
2022/07/06 11:04:43;;;;;;;10.57;6.53;;;;;;;34.73;31.79;99404.66;5092586;28;20448;-37
2022/07/06 11:07:14;;;;;;;9.30;6.40;;;;;;;35.23;30.67;99399.75;5092103;28;20099;-37
2022/07/06 11:09:47;;;;;;;6.72;5.90;;;;;;;35.07;30.46;99403.88;5092027;28;20079;-37
2022/07/06 11:12:20;;;;;;;8.30;6.22;;;;;;;34.96;30.36;99392.72;5092036;28;20371;-37
2022/07/06 11:14:47;;;;;;;6.63;5.95;;;;;;;34.64;30.11;99398.59;5092055;28;20036;-37
2022/07/06 11:17:13;;;;;;;9.57;6.28;;;;;;;35.03;29.98;99392.78;5092460;28;20024;-36
2022/07/06 11:19:54;;;;;;;7.80;5.78;;;;;;;35.66;29.73;99393.06;5091687;28;20020;-37
2022/07/06 11:22:20;;;;;;;6.13;5.43;;;;;;;36.37;27.81;99395.66;5092209;28;20023;-37
2022/07/06 11:24:46;;;;;;;8.32;5.40;;;;;;;36.00;27.55;99391.81;5091707;28;20073;-37
2022/07/06 11:27:12;;;;;;;7.13;5.20;;;;;;;35.83;26.99;99381.38;5091870;28;20028;-37
2022/07/06 11:29:38;;;;;;;6.20;5.32;;;;;;;36.08;27.29;99389.06;5091575;28;20411;-37
2022/07/06 11:32:06;;;;;;;8.73;6.03;;;;;;;36.22;27.75;99382.88;5091512;28;20024;-37